Time;durP1;ratioP1;P1;durP2;ratioP2;P2;SDS_P1;SDS_P2;PMS_P1;PMS_P2;Temp;Humidity;BMP_temperature;BMP_pressure;BME280_temperature;BME280_humidity;BME280_pressure;Samples;Min_cycle;Max_cycle;Signal;HPM_P1;HPM_P2
2022/12/17 13:06:55;;;;;;;;;45.75;37.25;;;;;3.78;56.00;101980.72;5046433;28;45228;-66
2022/12/17 13:09:47;;;;;;;;;46.75;41.50;;;;;3.79;55.50;101941.97;5045774;28;45440;-67
2022/12/17 13:12:25;;;;;;;;;43.00;38.25;;;;;3.83;55.13;101979.31;5044221;28;45470;-67
2022/12/17 13:14:57;;;;;;;;;50.50;40.25;;;;;3.83;55.43;101975.75;5038618;28;45632;-67
2022/12/17 13:17:34;;;;;;;;;59.50;41.25;;;;;3.88;54.98;101970.00;5043189;28;45373;-68
2022/12/17 13:20:02;;;;;;;;;48.50;39.50;;;;;3.90;55.09;101959.53;5037267;28;45546;-67
2022/12/17 13:22:32;;;;;;;;;58.50;38.50;;;;;3.99;55.11;101962.84;5033793;28;45461;-66
2022/12/17 13:25:20;;;;;;;;;51.25;37.25;;;;;3.86;54.74;101947.81;5035844;28;47090;-65
2022/12/17 13:27:46;;;;;;;;;59.00;46.00;;;;;3.98;55.17;101961.00;5034247;28;45818;-66
2022/12/17 13:30:20;;;;;;;;;63.00;50.50;;;;;3.91;55.00;101964.03;5042475;28;45468;-67
2022/12/17 13:33:17;;;;;;;;;52.50;41.50;;;;;3.85;54.76;101964.47;5042060;28;45440;-64
2022/12/17 13:36:12;;;;;;;;;53.25;38.75;;;;;3.81;55.38;101953.56;5033936;28;46690;-66
2022/12/17 13:39:20;;;;;;;;;59.00;46.00;;;;;3.96;55.21;101962.63;5034988;28;45528;-65
2022/12/17 13:41:46;;;;;;;;;55.75;43.75;;;;;4.03;55.05;101956.97;5041144;28;45489;-64
2022/12/17 13:44:30;;;;;;;;;54.50;44.00;;;;;4.10;55.40;101958.31;5037448;28;45288;-66
2022/12/17 13:46:55;;;;;;;;;56.75;42.00;;;;;4.14;54.68;101947.19;5034041;28;45455;-67
2022/12/17 13:49:23;;;;;;;;;56.00;40.50;;;;;4.29;54.33;101955.28;5033086;28;45537;-67
2022/12/17 13:52:06;;;;;;;;;40.75;37.25;;;;;4.37;53.40;101947.88;5033181;28;45429;-67
2022/12/17 13:54:31;;;;;;;;;41.00;35.75;;;;;4.50;52.94;101945.28;5033807;28;45640;-65
2022/12/17 13:57:08;;;;;;;;;58.25;46.00;;;;;4.64;53.11;101942.66;5045154;28;46476;-66
2022/12/17 13:59:34;;;;;;;;;53.25;41.75;;;;;4.71;52.56;101945.84;5033449;28;45453;-68
2022/12/17 14:01:59;;;;;;;;;75.25;59.50;;;;;4.73;53.01;101943.31;5033476;28;45278;-67
2022/12/17 14:04:28;;;;;;;;;53.50;40.75;;;;;4.80;52.41;101961.44;5033594;28;45525;-68
2022/12/17 14:06:57;;;;;;;;;97.00;80.00;;;;;4.62;52.24;101908.19;5032787;28;45467;-67
2022/12/17 14:09:32;;;;;;;;;82.75;52.75;;;;;5.08;52.94;101942.16;5039497;28;45341;-66
2022/12/17 14:14:47;;;;;;;;;66.50;49.50;;;;;5.68;50.40;101948.81;5035902;28;45405;-67
2022/12/17 14:17:21;;;;;;;;;52.75;43.00;;;;;6.14;49.57;101945.56;5045793;28;45348;-67
2022/12/17 14:19:58;;;;;;;;;80.00;58.25;;;;;6.62;48.55;101954.78;5033801;28;45442;-67
2022/12/17 14:22:34;;;;;;;;;85.75;60.00;;;;;6.94;47.60;101950.53;5033828;28;45455;-66
2022/12/17 14:25:00;;;;;;;;;65.25;48.00;;;;;7.07;46.39;101945.13;5033378;28;45559;-65
2022/12/17 14:27:33;;;;;;;;;52.75;39.75;;;;;6.92;46.40;101949.53;5033460;28;46173;-65
2022/12/17 14:29:59;;;;;;;;;73.75;51.75;;;;;6.77;46.49;101962.78;5032065;28;45998;-66
2022/12/17 14:32:34;;;;;;;;;72.25;51.00;;;;;6.46;47.15;101956.47;5035453;28;45331;-67
2022/12/17 14:35:01;;;;;;;;;64.50;45.75;;;;;6.32;47.89;101964.41;5037540;28;45525;-68
2022/12/17 14:37:29;;;;;;;;;74.50;56.00;;;;;6.13;47.59;101959.66;5036878;28;46356;-65
2022/12/17 14:40:03;;;;;;;;;53.25;40.00;;;;;5.43;47.69;101910.09;5036948;28;45515;-65
2022/12/17 14:42:28;;;;;;;;;46.75;36.25;;;;;5.53;48.37;101969.94;5036517;28;45307;-66
2022/12/17 14:44:58;;;;;;;;;68.75;52.00;;;;;5.19;48.08;101927.00;5037703;28;45452;-66
2022/12/17 14:47:30;;;;;;;;;60.50;44.50;;;;;5.37;48.19;101975.03;5037392;28;46438;-65
2022/12/17 14:50:04;;;;;;;;;41.00;37.50;;;;;5.22;48.87;101972.25;5037421;28;45443;-68
2022/12/17 14:52:32;;;;;;;;;43.50;37.00;;;;;5.10;47.65;101970.59;5037066;28;45482;-66
2022/12/17 14:54:57;;;;;;;;;40.50;33.25;;;;;5.00;47.99;101965.50;5037731;28;45478;-66
2022/12/17 14:57:23;;;;;;;;;47.25;36.75;;;;;4.89;48.63;101963.84;5038205;28;46052;-65
2022/12/17 14:59:49;;;;;;;;;37.75;34.00;;;;;4.78;48.83;101952.50;5040817;28;45558;-67
2022/12/17 15:02:17;;;;;;;;;32.00;30.25;;;;;4.66;48.82;101954.31;5038600;28;45412;-66
2022/12/17 15:04:43;;;;;;;;;36.50;33.50;;;;;4.42;49.36;101933.22;5041929;28;45371;-67
2022/12/17 15:07:16;;;;;;;;;48.25;37.75;;;;;4.38;49.61;101955.00;5039451;28;45306;-67
2022/12/17 15:09:42;;;;;;;;;49.25;38.75;;;;;4.25;50.46;101951.47;5036876;28;45386;-68
2022/12/17 15:12:08;;;;;;;;;54.25;38.00;;;;;4.10;51.09;101915.09;5048728;28;45549;-67
2022/12/17 15:14:33;;;;;;;;;55.25;36.25;;;;;3.73;50.70;101843.72;5040403;28;45513;-67
2022/12/17 15:17:00;;;;;;;;;78.75;57.00;;;;;4.30;50.15;101945.63;5045477;28;45309;-66
2022/12/17 15:19:25;;;;;;;;;57.00;41.50;;;;;4.37;50.60;101947.88;5038283;28;45327;-68
2022/12/17 15:21:51;;;;;;;;;51.75;43.25;;;;;4.11;50.20;101896.69;5037506;28;45471;-67
2022/12/17 15:24:19;;;;;;;;;41.50;37.00;;;;;4.46;50.61;101964.41;5055193;28;46542;-68
2022/12/17 15:26:45;;;;;;;;;51.25;38.75;;;;;4.43;50.91;101953.59;5044398;28;46269;-68
2022/12/17 15:29:11;;;;;;;;;43.75;34.50;;;;;4.37;50.35;101946.16;5036788;28;45265;-66
2022/12/17 15:31:37;;;;;;;;;34.50;30.75;;;;;4.21;49.95;101930.00;5042162;28;45465;-68
2022/12/17 15:34:02;;;;;;;;;41.00;34.50;;;;;4.21;50.14;101952.09;5037060;28;45609;-67
2022/12/17 15:36:30;;;;;;;;;35.75;31.25;;;;;4.19;50.13;101979.22;5036562;28;46142;-66
2022/12/17 15:38:56;;;;;;;;;38.50;30.25;;;;;4.13;50.46;101981.44;5055001;28;45478;-67
2022/12/17 15:44:05;;;;;;;;;45.75;35.00;;;;;4.11;50.92;101977.75;5039856;28;45527;-68
2022/12/17 15:46:31;;;;;;;;;41.75;30.00;;;;;3.91;50.62;101958.75;5045194;28;46085;-66
2022/12/17 15:48:56;;;;;;;;;51.00;36.25;;;;;3.97;51.42;101982.03;5045188;28;45418;-66
2022/12/17 15:51:22;;;;;;;;;36.25;32.75;;;;;3.68;51.19;101938.56;5043646;28;45544;-65
2022/12/17 15:53:49;;;;;;;;;47.50;38.50;;;;;3.91;51.34;101974.59;5051570;28;45614;-65
2022/12/17 15:56:21;;;;;;;;;49.00;40.00;;;;;3.93;51.56;101993.22;5052966;28;45603;-67
2022/12/17 15:58:46;;;;;;;;;43.25;36.25;;;;;3.93;52.25;101994.13;5055423;28;45459;-65
2022/12/17 16:01:11;;;;;;;;;43.75;35.00;;;;;3.75;52.07;101980.47;5060790;28;45427;-65
2022/12/17 16:03:37;;;;;;;;;20.25;15.00;;;;;3.73;51.51;101995.31;5060065;28;45080;-64
2022/12/17 16:06:02;;;;;;;;;34.50;31.25;;;;;3.48;51.93;101959.13;5054515;28;45183;-64
2022/12/17 16:08:28;;;;;;;;;61.00;44.75;;;;;3.66;52.17;101990.34;5061436;28;45215;-64
2022/12/17 16:10:53;;;;;;;;;67.50;52.25;;;;;3.77;52.06;102004.38;5056341;28;45080;-65
2022/12/17 16:13:19;;;;;;;;;41.25;30.50;;;;;3.63;52.44;101972.56;5057662;28;45058;-65
2022/12/17 16:15:44;;;;;;;;;45.75;33.00;;;;;3.77;52.44;101992.06;5036249;28;45579;-64
2022/12/17 16:18:10;;;;;;;;;45.75;36.50;;;;;3.77;52.35;102002.66;5039205;28;45452;-66
2022/12/17 16:20:35;;;;;;;;;51.25;38.25;;;;;3.84;52.31;102007.59;5035346;28;45519;-67
2022/12/17 16:23:00;;;;;;;;;63.75;49.75;;;;;3.82;51.89;102009.19;5035537;28;46077;-66
2022/12/17 16:25:26;;;;;;;;;61.50;45.75;;;;;3.47;52.55;101930.88;5039488;28;45497;-66
2022/12/17 16:27:54;;;;;;;;;48.75;38.25;;;;;3.71;52.27;101959.91;5035203;28;45259;-65
2022/12/17 16:30:21;;;;;;;;;41.75;39.75;;;;;3.67;52.22;101974.63;5053391;28;45332;-66
2022/12/17 16:32:47;;;;;;;;;49.25;34.50;;;;;3.64;52.49;101971.75;5047005;28;45343;-65
2022/12/17 16:35:12;;;;;;;;;45.50;36.00;;;;;3.76;52.03;101991.97;5034720;28;45963;-65
2022/12/17 16:37:39;;;;;;;;;45.25;37.75;;;;;3.57;52.12;101955.34;5035544;28;45295;-65
2022/12/17 16:40:05;;;;;;;;;42.75;32.00;;;;;3.73;51.84;101995.31;5036689;28;45779;-65
2022/12/17 16:42:31;;;;;;;;;50.00;34.50;;;;;3.60;51.47;102001.41;5039822;28;45520;-63
2022/12/17 16:44:57;;;;;;;;;51.25;30.25;;;;;3.51;51.71;101990.13;5040895;28;45527;-64
2022/12/17 16:47:23;;;;;;;;;32.50;30.50;;;;;3.60;51.76;102019.91;5034728;28;45402;-63
2022/12/17 16:49:52;;;;;;;;;40.50;35.25;;;;;3.58;51.24;102002.09;5042303;28;45738;-65
2022/12/17 16:52:17;;;;;;;;;40.50;36.25;;;;;3.56;51.45;101993.13;5035153;28;45313;-66
2022/12/17 16:54:43;;;;;;;;;54.75;41.50;;;;;3.56;51.05;101996.69;5034736;28;45441;-66
2022/12/17 16:57:09;;;;;;;;;33.50;26.75;;;;;3.48;51.62;101974.06;5044196;28;45555;-65
2022/12/17 16:59:35;;;;;;;;;50.00;40.50;;;;;3.57;51.53;101987.06;5045719;28;45620;-65
2022/12/17 17:02:01;;;;;;;;;58.75;45.50;;;;;3.49;51.97;101973.25;5047078;28;45302;-63
2022/12/17 17:04:27;;;;;;;;;57.25;44.00;;;;;3.52;51.63;101981.41;5037901;28;45450;-66
2022/12/17 17:06:56;;;;;;;;;36.75;29.00;;;;;3.61;52.07;101981.16;5035975;28;45637;-66
2022/12/17 17:09:23;;;;;;;;;40.75;36.25;;;;;3.59;51.90;101983.69;5037490;28;45815;-66
2022/12/17 17:11:53;;;;;;;;;33.00;28.25;;;;;3.59;51.59;101996.00;5054167;28;45648;-66
2022/12/17 17:14:19;;;;;;;;;26.00;20.75;;;;;3.52;52.20;101969.94;5039110;28;45522;-65
2022/12/17 17:16:44;;;;;;;;;55.00;40.00;;;;;3.58;52.28;101987.16;5040892;28;45418;-66
2022/12/17 17:19:10;;;;;;;;;47.50;39.75;;;;;3.41;52.43;101946.25;5034101;28;45658;-64
2022/12/17 17:21:40;;;;;;;;;51.50;36.25;;;;;3.53;52.49;101991.19;5034766;28;45600;-65
2022/12/17 17:24:15;;;;;;;;;45.25;39.00;;;;;3.52;52.94;102004.28;5037748;28;46090;-65
2022/12/17 17:26:41;;;;;;;;;53.50;42.50;;;;;3.39;53.10;101981.31;5048121;28;45378;-65
2022/12/17 17:29:07;;;;;;;;;59.50;41.50;;;;;3.51;53.42;101987.50;5046426;28;45524;-68
2022/12/17 17:31:33;;;;;;;;;52.25;43.75;;;;;3.45;53.53;101993.25;5046243;28;45484;-68
2022/12/17 17:34:09;;;;;;;;;68.00;50.00;;;;;2.69;53.99;101861.63;5043235;28;46324;-67
2022/12/17 17:36:35;;;;;;;;;65.50;49.75;;;;;3.45;54.44;102018.75;5048109;28;45413;-66
2022/12/17 17:39:01;;;;;;;;;65.75;49.00;;;;;3.26;54.16;101985.66;5037678;28;45440;-67
2022/12/17 17:41:29;;;;;;;;;58.00;42.75;;;;;3.39;53.51;102011.28;5034727;28;45515;-68
2022/12/17 17:44:04;;;;;;;;;64.75;47.75;;;;;3.40;53.97;102018.41;5040578;28;46503;-63
2022/12/17 17:46:30;;;;;;;;;72.50;52.25;;;;;3.46;53.32;102012.66;5035541;28;45432;-66
2022/12/17 17:48:57;;;;;;;;;67.25;50.25;;;;;3.45;53.52;102024.97;5036937;28;45445;-66
2022/12/17 17:51:26;;;;;;;;;64.75;47.00;;;;;3.35;53.33;102005.63;5049012;28;45509;-64
2022/12/17 17:53:53;;;;;;;;;48.50;37.50;;;;;3.44;53.07;102031.03;5047364;28;45524;-63
2022/12/17 17:56:21;;;;;;;;;56.50;42.75;;;;;3.36;53.26;102003.13;5042145;28;45547;-66
2022/12/17 17:58:49;;;;;;;;;64.75;44.50;;;;;3.31;53.79;102012.41;5037473;28;46264;-66
2022/12/17 18:01:18;;;;;;;;;48.75;38.75;;;;;3.29;54.11;102008.75;5045536;28;45377;-62
2022/12/17 18:03:44;;;;;;;;;65.00;46.25;;;;;3.24;54.16;101991.63;5036869;28;47055;-62
2022/12/17 18:06:12;;;;;;;;;61.50;45.50;;;;;3.29;54.31;101995.53;5040581;28;45744;-64
2022/12/17 18:08:39;;;;;;;;;55.00;44.75;;;;;3.31;54.07;102001.84;5043978;28;45627;-64
2022/12/17 18:11:06;;;;;;;;;58.00;42.75;;;;;3.26;54.25;101987.38;5038717;28;45367;-64
2022/12/17 18:16:19;;;;;;;;;58.25;39.25;;;;;3.28;54.52;101984.06;5035658;28;45478;-66
2022/12/17 18:18:44;;;;;;;;;59.75;48.50;;;;;3.25;54.69;101985.53;5032674;28;45419;-64
2022/12/17 18:21:13;;;;;;;;;68.75;50.50;;;;;3.21;55.02;101992.31;5036087;28;45377;-63
2022/12/17 18:23:38;;;;;;;;;64.50;47.50;;;;;3.23;55.01;101989.78;5035423;28;45350;-67
2022/12/17 18:26:08;;;;;;;;;62.00;46.25;;;;;3.18;55.06;101997.34;5035604;28;45419;-67
2022/12/17 18:28:34;;;;;;;;;63.50;50.75;;;;;3.21;55.33;102008.16;5048040;28;45504;-67
2022/12/17 18:31:15;;;;;;;;;67.00;51.00;;;;;3.19;54.93;102004.47;5034797;28;45309;-65
2022/12/17 18:33:43;;;;;;;;;68.50;51.75;;;;;3.18;55.19;101996.44;5035556;28;45491;-65
2022/12/17 18:36:17;;;;;;;;;66.25;52.00;;;;;3.19;55.17;101993.00;5034098;28;45327;-68
2022/12/17 18:38:43;;;;;;;;;65.75;48.00;;;;;3.21;54.98;101994.94;5047108;28;45510;-65
2022/12/17 18:44:04;;;;;;;;;58.75;46.25;;;;;3.27;54.70;102019.19;5022768;28;45568;-66
2022/12/17 18:46:30;;;;;;;;;65.00;42.00;;;;;3.21;54.24;102016.06;5033957;28;45489;-66
2022/12/17 18:48:58;;;;;;;;;57.75;43.75;;;;;3.20;54.97;102024.81;5041670;28;46091;-65
2022/12/17 18:51:24;;;;;;;;;59.25;46.25;;;;;3.21;54.57;102026.63;5044892;28;45972;-64
2022/12/17 18:53:49;;;;;;;;;75.50;57.25;;;;;3.08;54.31;102001.00;5045483;28;45417;-65
2022/12/17 18:56:15;;;;;;;;;80.75;60.00;;;;;3.11;54.85;102034.66;5046161;28;45488;-66
2022/12/17 18:58:42;;;;;;;;;61.50;49.25;;;;;3.04;54.60;102032.38;5043518;28;45429;-66
2022/12/17 19:01:18;;;;;;;;;60.75;45.50;;;;;3.11;54.34;102039.94;5042340;28;45469;-64
2022/12/17 19:03:43;;;;;;;;;60.50;44.25;;;;;3.13;54.38;102031.34;5036662;28;46142;-67
2022/12/17 19:06:09;;;;;;;;;60.00;47.00;;;;;2.98;53.84;101997.56;5043846;28;45481;-65
2022/12/17 19:08:35;;;;;;;;;62.50;49.25;;;;;3.08;54.12;102023.88;5040795;28;45950;-65
2022/12/17 19:11:05;;;;;;;;;78.25;60.25;;;;;3.09;54.23;102034.53;5040497;28;45313;-65
2022/12/17 19:13:32;;;;;;;;;75.75;54.00;;;;;3.00;54.20;102027.63;5039161;28;45415;-66
2022/12/17 19:16:09;;;;;;;;;65.75;51.25;;;;;3.02;53.99;102033.94;5040861;28;45564;-64
2022/12/17 19:18:36;;;;;;;;;74.50;56.25;;;;;3.05;54.06;102034.19;5036181;28;45445;-66
2022/12/17 19:21:01;;;;;;;;;71.75;54.50;;;;;3.07;54.10;102036.16;5039924;28;45599;-65
2022/12/17 19:23:28;;;;;;;;;70.50;46.25;;;;;3.07;53.68;102033.50;5038864;28;47466;-65
2022/12/17 19:25:55;;;;;;;;;63.25;43.50;;;;;3.00;53.98;102041.75;5050323;28;45574;-67
2022/12/17 19:28:20;;;;;;;;;70.75;53.25;;;;;2.84;53.50;102031.72;5033219;28;45701;-65
2022/12/17 19:30:46;;;;;;;;;72.75;53.00;;;;;2.79;54.05;102033.09;5047096;28;45617;-63
2022/12/17 19:33:11;;;;;;;;;71.00;52.50;;;;;2.65;53.93;102021.44;5040077;28;45930;-65
2022/12/17 19:35:37;;;;;;;;;58.50;43.00;;;;;2.71;53.71;102024.56;5038327;28;45528;-66
2022/12/17 19:38:02;;;;;;;;;59.25;50.75;;;;;2.79;53.77;102034.78;5037943;28;45480;-66
2022/12/17 19:40:28;;;;;;;;;66.25;53.50;;;;;2.75;53.93;102025.72;5049607;28;45527;-65
2022/12/17 19:42:54;;;;;;;;;73.25;52.00;;;;;2.76;53.20;102023.19;5037277;28;46562;-64
2022/12/17 19:45:20;;;;;;;;;61.00;50.00;;;;;2.86;53.27;102032.75;5048689;28;45519;-64
2022/12/17 19:47:46;;;;;;;;;73.75;51.50;;;;;2.82;53.74;102035.97;5041881;28;45374;-64
2022/12/17 19:50:11;;;;;;;;;58.25;48.00;;;;;2.49;53.82;101977.13;5037905;28;45809;-65
2022/12/17 19:52:37;;;;;;;;;74.00;54.50;;;;;2.68;53.51;102008.50;5042070;28;45947;-68
2022/12/17 19:55:03;;;;;;;;;51.75;40.50;;;;;2.70;53.17;102019.16;5048473;28;46891;-66
2022/12/17 19:57:29;;;;;;;;;67.50;50.00;;;;;2.72;53.34;102017.56;5040883;28;45413;-63
2022/12/17 19:59:54;;;;;;;;;56.75;46.25;;;;;2.53;52.85;101975.63;5043422;28;45523;-63
2022/12/17 20:02:19;;;;;;;;;63.75;53.75;;;;;2.81;53.10;102054.31;5035509;28;46022;-65
2022/12/17 20:04:45;;;;;;;;;66.75;50.25;;;;;2.79;53.30;102037.44;5045694;28;45487;-64
2022/12/17 20:07:10;;;;;;;;;62.00;48.75;;;;;2.79;52.15;102051.56;5040644;28;46203;-64
2022/12/17 20:09:36;;;;;;;;;62.00;47.00;;;;;2.61;52.19;102021.06;5041019;28;45657;-64
2022/12/17 20:12:01;;;;;;;;;58.00;46.25;;;;;2.62;53.03;102039.66;5038585;28;46124;-67
2022/12/17 20:14:27;;;;;;;;;66.00;51.00;;;;;2.65;53.02;102041.63;5044339;28;45390;-65
2022/12/17 20:16:58;;;;;;;;;64.00;50.00;;;;;2.69;52.66;102052.56;5040306;28;45445;-65
2022/12/17 20:19:27;;;;;;;;;64.75;48.50;;;;;2.78;52.53;102062.00;5043868;28;45430;-65
2022/12/17 20:21:53;;;;;;;;;60.25;42.75;;;;;2.76;52.71;102062.78;5039818;28;46330;-63
2022/12/17 20:24:19;;;;;;;;;59.00;44.25;;;;;2.71;52.86;102063.22;5045234;28;45529;-66
2022/12/17 20:26:48;;;;;;;;;49.00;41.25;;;;;2.59;52.89;102068.47;5033964;28;46202;-64
2022/12/17 20:29:13;;;;;;;;;56.75;41.25;;;;;2.55;53.06;102058.44;5036271;28;45376;-66
2022/12/17 20:31:41;;;;;;;;;68.75;51.00;;;;;2.64;52.92;102085.56;5034231;28;46493;-66
2022/12/17 20:34:08;;;;;;;;;59.75;49.25;;;;;2.59;52.80;102065.81;5034494;28;45477;-63
2022/12/17 20:36:33;;;;;;;;;57.75;41.50;;;;;2.64;53.31;102069.75;5043444;28;45436;-64
2022/12/17 20:38:59;;;;;;;;;74.75;58.00;;;;;2.62;53.30;102065.13;5036708;28;45360;-64
2022/12/17 20:41:27;;;;;;;;;68.50;50.75;;;;;2.63;52.91;102072.25;5045352;28;47134;-63
2022/12/17 20:43:54;;;;;;;;;73.50;54.75;;;;;2.61;53.05;102074.78;5038075;28;45406;-65
2022/12/17 20:46:20;;;;;;;;;69.25;53.00;;;;;2.60;53.18;102067.66;5047446;28;45474;-65
2022/12/17 20:48:50;;;;;;;;;73.00;52.50;;;;;2.51;52.77;102066.94;5042815;28;45478;-64
2022/12/17 20:51:22;;;;;;;;;68.00;50.00;;;;;2.37;53.39;102077.25;5037446;28;45611;-67
2022/12/17 20:53:52;;;;;;;;;68.00;45.25;;;;;2.20;53.86;102072.34;5037839;28;45588;-65
2022/12/17 20:56:23;;;;;;;;;63.75;49.75;;;;;2.21;53.90;102083.03;5039051;28;45299;-65
2022/12/17 20:58:54;;;;;;;;;60.25;44.75;;;;;2.31;54.02;102096.94;5040290;28;45879;-64
2022/12/17 21:01:22;;;;;;;;;60.25;47.00;;;;;2.27;54.36;102090.50;5040693;28;47473;-62
2022/12/17 21:03:49;;;;;;;;;62.75;46.00;;;;;1.97;53.80;102047.66;5039353;28;45576;-65
2022/12/17 21:06:18;;;;;;;;;70.75;54.75;;;;;2.32;53.86;102097.06;5038577;28;45461;-63
2022/12/17 21:08:47;;;;;;;;;56.75;43.00;;;;;2.34;54.16;102081.38;5036121;28;45901;-65
2022/12/17 21:11:13;;;;;;;;;56.75;44.50;;;;;2.35;53.86;102085.88;5038039;28;45722;-62
2022/12/17 21:13:39;;;;;;;;;62.00;44.50;;;;;2.36;54.12;102088.63;5043075;28;45568;-63
2022/12/17 21:16:09;;;;;;;;;57.50;43.75;;;;;2.38;53.91;102089.66;5042125;28;45539;-65
2022/12/17 21:18:34;;;;;;;;;56.75;40.50;;;;;2.39;54.02;102096.78;5038768;28;46419;-65
2022/12/17 21:21:08;;;;;;;;;70.50;53.50;;;;;2.40;54.09;102076.59;5040616;28;45294;-64
2022/12/17 21:23:34;;;;;;;;;69.25;53.75;;;;;2.47;53.91;102089.47;5038121;28;45445;-63
2022/12/17 21:26:28;;;;;;;;;69.75;52.75;;;;;2.51;53.56;102088.03;5040778;28;45240;-64
2022/12/17 21:28:58;;;;;;;;;73.00;57.00;;;;;2.51;53.71;102078.41;5035292;28;46176;-64
2022/12/17 21:31:37;;;;;;;;;64.75;50.50;;;;;2.49;53.62;102072.09;5040630;28;45489;-64
2022/12/17 21:34:04;;;;;;;;;70.25;51.00;;;;;2.46;53.78;102073.53;5038444;28;45445;-65
2022/12/17 21:36:31;;;;;;;;;64.50;49.75;;;;;2.39;53.55;102067.78;5037719;28;45469;-65
2022/12/17 21:38:57;;;;;;;;;71.50;56.00;;;;;2.47;53.60;102073.66;5048275;28;45528;-64
2022/12/17 21:41:25;;;;;;;;;67.00;51.25;;;;;2.43;53.97;102068.94;5037482;28;46052;-63
2022/12/17 21:43:55;;;;;;;;;57.50;46.50;;;;;2.39;53.47;102059.88;5034089;28;45440;-62
2022/12/17 21:46:22;;;;;;;;;75.50;56.75;;;;;2.45;54.19;102071.69;5038278;28;45334;-66
2022/12/17 21:48:47;;;;;;;;;53.25;45.50;;;;;2.42;53.50;102072.38;5041333;28;45658;-64
2022/12/17 21:51:13;;;;;;;;;63.25;46.00;;;;;2.42;53.73;102071.44;5039394;28;45612;-64
2022/12/17 21:53:41;;;;;;;;;61.50;47.25;;;;;2.35;53.27;102052.50;5041968;28;45362;-62
2022/12/17 21:56:09;;;;;;;;;62.75;48.75;;;;;2.42;53.73;102050.34;5044125;28;45391;-62
2022/12/17 21:58:35;;;;;;;;;62.00;50.00;;;;;2.36;53.92;102038.53;5039123;28;46137;-62
2022/12/17 22:01:18;;;;;;;;;77.75;60.00;;;;;2.38;53.59;102025.47;5044091;28;45567;-64
2022/12/17 22:03:44;;;;;;;;;70.25;53.50;;;;;2.21;53.77;102005.63;5040408;28;45524;-64
2022/12/17 22:06:13;;;;;;;;;62.75;47.50;;;;;2.43;53.80;102034.66;5041839;28;45533;-62
2022/12/17 22:08:39;;;;;;;;;63.00;50.75;;;;;2.39;53.38;102029.91;5041119;28;45738;-65
2022/12/17 22:11:17;;;;;;;;;62.50;52.25;;;;;2.32;53.81;102017.03;5039837;28;45387;-64
2022/12/17 22:14:02;;;;;;;;;62.50;50.25;;;;;2.36;53.78;102043.78;5034437;28;45424;-66
2022/12/17 22:16:41;;;;;;;;;69.00;54.50;;;;;2.34;53.29;102045.41;5035226;28;45466;-65
2022/12/17 22:19:09;;;;;;;;;56.75;47.25;;;;;2.24;53.77;102040.16;5037383;28;45564;-66
2022/12/17 22:21:38;;;;;;;;;65.50;48.50;;;;;2.32;53.45;102022.31;5041866;28;45528;-65
2022/12/17 22:24:04;;;;;;;;;73.50;53.25;;;;;2.37;53.46;102034.16;5042170;28;45587;-63
2022/12/17 22:26:29;;;;;;;;;65.50;42.75;;;;;2.38;53.56;102030.72;5042733;28;45594;-64
2022/12/17 22:28:55;;;;;;;;;60.25;46.50;;;;;2.34;53.56;102032.22;5042301;28;46142;-64
2022/12/17 22:34:07;;;;;;;;;58.25;47.50;;;;;2.37;53.27;102036.78;5037104;28;45619;-63
2022/12/17 22:36:32;;;;;;;;;65.25;46.75;;;;;2.00;53.56;101989.03;5037645;28;45657;-64
2022/12/17 22:39:04;;;;;;;;;57.75;44.25;;;;;2.26;53.06;102041.22;5042621;28;45661;-64
2022/12/17 22:44:13;;;;;;;;;50.75;42.50;;;;;2.08;53.03;102015.97;5040089;28;45685;-64
2022/12/17 22:46:40;;;;;;;;;66.75;46.75;;;;;2.08;53.32;102032.75;5039620;28;47812;-63
2022/12/17 22:49:06;;;;;;;;;47.25;41.50;;;;;2.03;52.85;102019.19;5035196;28;45999;-63
2022/12/17 22:51:32;;;;;;;;;68.00;49.75;;;;;1.99;53.26;102013.53;5029805;28;47000;-65
2022/12/17 22:54:06;;;;;;;;;62.00;47.75;;;;;1.83;53.83;102009.66;5043830;28;45401;-63
2022/12/17 22:56:33;;;;;;;;;63.25;50.50;;;;;1.75;53.98;102005.47;5039963;28;45505;-64
2022/12/17 22:58:58;;;;;;;;;61.25;46.50;;;;;1.76;54.14;102036.28;5042372;28;45518;-66
2022/12/17 23:01:24;;;;;;;;;60.00;45.75;;;;;1.60;54.47;102031.47;5043133;28;45410;-64
2022/12/17 23:03:53;;;;;;;;;64.25;50.25;;;;;1.52;54.15;102021.06;5042730;28;46396;-66
2022/12/17 23:06:19;;;;;;;;;71.25;52.00;;;;;1.39;54.72;101998.09;5039423;28;45519;-64
2022/12/17 23:08:44;;;;;;;;;70.25;50.25;;;;;1.41;54.90;102007.94;5037936;28;45418;-65
2022/12/17 23:11:19;;;;;;;;;61.50;48.00;;;;;1.38;54.82;101993.59;5039493;28;47452;-65
2022/12/17 23:13:45;;;;;;;;;60.00;48.25;;;;;1.39;54.83;102000.72;5036767;28;46398;-65
2022/12/17 23:16:12;;;;;;;;;55.00;46.50;;;;;1.41;54.50;102001.75;5044916;28;45575;-62
2022/12/17 23:18:38;;;;;;;;;84.25;61.00;;;;;1.44;55.37;101991.50;5040433;28;45467;-64
2022/12/17 23:21:11;;;;;;;;;71.50;51.50;;;;;1.45;55.52;101988.03;5042889;28;45464;-62
2022/12/17 23:23:37;;;;;;;;;70.00;51.25;;;;;1.37;55.78;101992.69;5039105;28;45603;-64
2022/12/17 23:26:13;;;;;;;;;93.50;66.50;;;;;1.37;54.47;101997.97;5044831;28;45470;-64
2022/12/17 23:28:39;;;;;;;;;81.75;55.75;;;;;1.34;55.95;102000.34;5042005;28;45601;-64
2022/12/17 23:31:06;;;;;;;;;75.00;57.50;;;;;1.27;55.94;101998.91;5044174;28;45497;-64
2022/12/17 23:33:32;;;;;;;;;79.50;56.75;;;;;1.15;54.90;101971.53;5044213;28;45523;-64
2022/12/17 23:36:08;;;;;;;;;53.25;44.00;;;;;1.30;55.61;102003.47;5040847;28;45429;-64
2022/12/17 23:38:34;;;;;;;;;67.00;49.75;;;;;1.28;55.45;102002.44;5043864;28;45590;-63
2022/12/17 23:41:11;;;;;;;;;67.00;48.00;;;;;1.15;55.28;102002.22;5036898;28;46183;-65
2022/12/17 23:43:37;;;;;;;;;56.00;46.50;;;;;1.12;54.90;102002.84;5039908;28;45621;-64
2022/12/17 23:46:03;;;;;;;;;86.25;67.25;;;;;1.15;55.29;102005.75;5058373;28;45536;-65
2022/12/17 23:48:30;;;;;;;;;68.00;50.50;;;;;1.23;55.10;102006.41;5045793;28;45484;-63
2022/12/17 23:50:57;;;;;;;;;64.00;47.50;;;;;1.21;55.78;102011.53;5047763;28;45984;-65
2022/12/17 23:53:22;;;;;;;;;57.00;41.25;;;;;1.21;54.53;102002.72;5034979;28;45462;-64
2022/12/17 23:55:48;;;;;;;;;62.75;47.75;;;;;1.31;54.76;102013.22;5041999;28;45437;-65
2022/12/17 23:58:14;;;;;;;;;61.50;43.75;;;;;1.26;54.58;102007.56;5044705;28;45402;-64
